Time;durP1;ratioP1;P1;durP2;ratioP2;P2;SDS_P1;SDS_P2;PMS_P1;PMS_P2;Temp;Humidity;BMP_temperature;BMP_pressure;BME280_temperature;BME280_humidity;BME280_pressure;Samples;Min_cycle;Max_cycle;Signal;HPM_P1;HPM_P2
2023/01/17 00:02:24;;;;;;;10.70;4.13;;;-1.20;99.90;;;;;;4985919;28;20491;-59
2023/01/17 00:10:39;;;;;;;8.70;4.00;;;-1.20;99.90;;;;;;4988136;28;20042;-61
2023/01/17 00:13:07;;;;;;;12.57;3.60;;;-1.20;99.90;;;;;;4989726;28;20046;-59
2023/01/17 00:15:36;;;;;;;13.10;4.13;;;-1.20;99.90;;;;;;4989375;28;20046;-60
2023/01/17 00:18:04;;;;;;;14.68;4.07;;;-1.10;99.90;;;;;;4993102;28;20596;-60
2023/01/17 00:26:13;;;;;;;17.73;5.50;;;-1.00;99.90;;;;;;4980367;28;20035;-59
2023/01/17 01:34:11;;;;;;;13.38;5.88;;;-1.40;99.90;;;;;;4989209;28;20513;-60
2023/01/17 01:36:39;;;;;;;13.13;5.82;;;-1.50;99.90;;;;;;4992625;28;20058;-60
2023/01/17 01:39:07;;;;;;;14.45;5.95;;;-1.50;99.90;;;;;;4991817;28;20459;-58
2023/01/17 01:41:38;;;;;;;16.92;6.47;;;-1.50;99.90;;;;;;4990699;28;20047;-59
2023/01/17 01:44:58;;;;;;;10.68;5.40;;;-1.60;99.90;;;;;;4994994;28;20061;-59
2023/01/17 01:47:39;;;;;;;16.00;5.30;;;-1.60;99.90;;;;;;4989853;28;20487;-59
2023/01/17 01:50:09;;;;;;;13.82;5.90;;;-1.60;99.90;;;;;;4972430;28;20057;-60
2023/01/17 01:52:43;;;;;;;8.73;4.72;;;-1.60;99.90;;;;;;4975398;28;20058;-60
2023/01/17 01:55:24;;;;;;;14.45;5.30;;;-1.70;99.90;;;;;;5002145;28;20049;-67
2023/01/17 01:57:55;;;;;;;13.52;5.97;;;-1.70;99.90;;;;;;4975123;28;20051;-65
2023/01/17 02:00:36;;;;;;;15.13;5.20;;;-1.70;99.90;;;;;;4991034;28;20038;-63
2023/01/17 02:03:09;;;;;;;10.95;4.68;;;-1.80;99.90;;;;;;4990838;28;20038;-65
2023/01/17 02:05:37;;;;;;;13.07;4.75;;;-1.80;99.90;;;;;;4990211;28;20049;-64
2023/01/17 02:08:09;;;;;;;16.15;4.65;;;-1.80;99.90;;;;;;4991234;28;20050;-64
2023/01/17 02:10:39;;;;;;;9.10;4.60;;;-1.80;99.90;;;;;;4990515;28;20046;-64
2023/01/17 02:13:11;;;;;;;9.50;5.10;;;-1.80;99.90;;;;;;4991022;28;20422;-61
2023/01/17 02:15:58;;;;;;;9.57;5.28;;;-1.80;99.90;;;;;;4989571;28;20043;-64
2023/01/17 02:18:38;;;;;;;10.70;5.60;;;-1.90;99.90;;;;;;4990411;28;20057;-59
2023/01/17 02:21:22;;;;;;;12.57;5.13;;;-1.90;99.90;;;;;;4993001;28;20046;-61
2023/01/17 02:24:36;;;;;;;13.07;5.95;;;-1.90;99.90;;;;;;4992378;28;20043;-61
2023/01/17 02:27:26;;;;;;;13.55;5.93;;;-1.90;99.90;;;;;;4989996;28;20042;-62
2023/01/17 02:30:12;;;;;;;15.43;6.72;;;-2.00;99.90;;;;;;4990236;28;20046;-60
2023/01/17 02:32:51;;;;;;;19.35;6.38;;;-2.00;99.90;;;;;;4987834;28;20411;-66
2023/01/17 02:35:53;;;;;;;14.40;6.38;;;-0.90;99.90;;;;;;4990440;28;20046;-64
2023/01/17 02:38:30;;;;;;;15.52;6.93;;;-2.00;99.90;;;;;;4983885;28;20046;-67
2023/01/17 02:41:12;;;;;;;15.40;7.05;;;-2.00;99.90;;;;;;4991589;28;20049;-65
2023/01/17 02:43:42;;;;;;;12.85;5.97;;;-2.10;99.90;;;;;;4988270;28;20064;-60
2023/01/17 02:46:10;;;;;;;14.57;6.47;;;-2.10;99.90;;;;;;4989907;28;20049;-65
2023/01/17 02:48:38;;;;;;;15.02;7.18;;;-2.10;99.90;;;;;;4989966;28;20046;-65
2023/01/17 02:51:20;;;;;;;15.10;7.15;;;-2.10;99.90;;;;;;4992461;28;20525;-66
2023/01/17 02:54:12;;;;;;;11.45;5.70;;;-2.20;99.90;;;;;;4991474;28;20042;-60
2023/01/17 02:56:43;;;;;;;16.55;6.22;;;-2.20;99.90;;;;;;4992401;28;20398;-66
2023/01/17 02:59:39;;;;;;;11.77;6.55;;;-2.10;99.90;;;;;;4991679;28;20391;-64
2023/01/17 03:02:18;;;;;;;10.85;5.88;;;-2.10;99.90;;;;;;4990343;28;20050;-66
2023/01/17 03:05:07;;;;;;;15.30;7.57;;;-2.10;99.90;;;;;;4980460;28;20042;-66
2023/01/17 03:07:38;;;;;;;15.43;6.07;;;-2.20;99.90;;;;;;4992289;28;20054;-66
2023/01/17 03:10:08;;;;;;;14.73;7.13;;;-2.10;99.90;;;;;;4991433;28;20402;-62
2023/01/17 03:12:38;;;;;;;12.93;5.80;;;-2.10;99.90;;;;;;4989990;28;20042;-65
2023/01/17 03:15:12;;;;;;;11.82;6.35;;;-2.10;99.90;;;;;;4991355;28;20054;-65
2023/01/17 03:17:49;;;;;;;15.75;5.97;;;-2.00;99.90;;;;;;4992343;28;20050;-65
2023/01/17 03:20:17;;;;;;;12.57;6.13;;;-2.00;99.90;;;;;;4991994;28;20054;-65
2023/01/17 03:22:44;;;;;;;15.88;6.25;;;-2.00;99.90;;;;;;4992058;28;20053;-66
2023/01/17 03:25:12;;;;;;;16.42;6.53;;;-2.00;99.90;;;;;;4992011;28;20042;-67
2023/01/17 03:27:40;;;;;;;15.52;6.63;;;-2.00;99.90;;;;;;4990945;28;20046;-66
2023/01/17 03:30:08;;;;;;;15.05;5.38;;;-2.00;99.90;;;;;;4989719;28;20050;-60
2023/01/17 03:32:36;;;;;;;10.52;5.70;;;-2.00;99.90;;;;;;4988284;28;20458;-66
2023/01/17 03:35:04;;;;;;;10.07;5.43;;;-2.10;99.90;;;;;;4991510;28;20498;-66
2023/01/17 03:37:32;;;;;;;10.45;5.28;;;-2.10;99.90;;;;;;4991835;28;20049;-67
2023/01/17 03:39:59;;;;;;;10.18;4.70;;;-2.20;99.90;;;;;;4993561;28;20042;-59
2023/01/17 03:42:27;;;;;;;11.57;5.18;;;-2.30;99.90;;;;;;4995581;28;20042;-66
2023/01/17 03:44:54;;;;;;;9.13;4.55;;;-2.30;99.90;;;;;;4994985;28;20487;-66
2023/01/17 03:47:22;;;;;;;11.60;5.47;;;-2.30;99.90;;;;;;4993727;28;20053;-59
2023/01/17 03:49:50;;;;;;;11.13;4.75;;;-2.30;99.90;;;;;;4995775;28;20045;-67
2023/01/17 03:52:18;;;;;;;18.02;6.53;;;-2.40;99.90;;;;;;4995411;28;20391;-66
2023/01/17 03:54:47;;;;;;;16.10;5.90;;;-2.40;99.90;;;;;;4975905;28;20042;-61
2023/01/17 03:57:14;;;;;;;13.18;5.35;;;-2.30;99.90;;;;;;4992013;28;20042;-66
2023/01/17 03:59:42;;;;;;;10.45;5.53;;;-2.30;99.90;;;;;;4994576;28;20054;-63
2023/01/17 04:02:10;;;;;;;13.40;5.38;;;-2.30;99.90;;;;;;4994858;28;20498;-66
2023/01/17 04:04:37;;;;;;;11.65;5.35;;;-2.30;99.90;;;;;;4995350;28;20053;-66
2023/01/17 04:07:05;;;;;;;9.30;5.55;;;-2.40;99.90;;;;;;4995298;28;20045;-59
2023/01/17 04:09:35;;;;;;;10.27;5.45;;;-2.40;99.90;;;;;;4995460;28;20046;-64
2023/01/17 04:12:03;;;;;;;11.52;5.43;;;-2.40;99.90;;;;;;4994998;28;20046;-61
2023/01/17 04:14:30;;;;;;;12.85;6.18;;;-2.50;99.90;;;;;;4993236;28;20050;-63
2023/01/17 04:16:58;;;;;;;15.63;7.22;;;-2.50;99.90;;;;;;4995265;28;20057;-67
2023/01/17 04:19:26;;;;;;;20.92;7.18;;;-2.50;99.90;;;;;;4994154;28;20042;-66
2023/01/17 04:21:54;;;;;;;17.80;6.85;;;-2.50;99.90;;;;;;4995322;28;20038;-66
2023/01/17 04:24:22;;;;;;;18.25;7.68;;;-2.40;99.90;;;;;;4994967;28;20058;-65
2023/01/17 04:26:49;;;;;;;13.15;5.97;;;-2.40;99.90;;;;;;4993483;28;20393;-66
2023/01/17 04:29:17;;;;;;;17.80;6.10;;;-2.40;99.90;;;;;;4993956;28;20061;-61
2023/01/17 04:31:46;;;;;;;13.82;5.85;;;-2.40;99.90;;;;;;4994357;28;20046;-66
2023/01/17 04:34:14;;;;;;;11.45;5.63;;;-2.40;99.90;;;;;;4994896;28;20050;-66
2023/01/17 04:36:42;;;;;;;17.30;6.80;;;-2.40;99.90;;;;;;4994574;28;20070;-64
2023/01/17 04:39:09;;;;;;;14.65;6.53;;;-2.50;99.90;;;;;;4993422;28;20050;-65
2023/01/17 04:41:37;;;;;;;17.58;5.68;;;-2.50;99.90;;;;;;4986618;28;20057;-66
2023/01/17 04:44:05;;;;;;;16.25;6.35;;;-2.60;99.90;;;;;;4989308;28;20391;-66
2023/01/17 04:46:35;;;;;;;15.00;6.75;;;-2.60;99.90;;;;;;4993387;28;20073;-63
2023/01/17 04:49:03;;;;;;;12.57;5.95;;;-2.70;99.90;;;;;;4994828;28;20406;-62
2023/01/17 04:51:33;;;;;;;14.82;6.35;;;-2.70;99.90;;;;;;4994055;28;20043;-64
2023/01/17 04:54:00;;;;;;;14.60;6.18;;;-2.70;99.90;;;;;;4993463;28;20046;-65
2023/01/17 04:56:28;;;;;;;13.88;6.20;;;-2.70;99.90;;;;;;5008795;28;20046;-64
2023/01/17 04:58:57;;;;;;;9.75;5.55;;;-2.80;99.90;;;;;;5011990;28;20422;-67
2023/01/17 05:01:24;;;;;;;10.60;4.90;;;-2.80;99.90;;;;;;5011743;28;20508;-67
2023/01/17 05:03:52;;;;;;;12.23;5.82;;;-2.80;99.90;;;;;;4994374;28;20304;-65
2023/01/17 05:06:20;;;;;;;17.20;6.45;;;-2.90;99.90;;;;;;4994349;28;20046;-66
2023/01/17 05:08:47;;;;;;;17.23;6.15;;;-2.90;99.90;;;;;;4992214;28;20050;-59
2023/01/17 05:11:18;;;;;;;17.27;7.32;;;-2.90;99.90;;;;;;4994166;28;20042;-65
2023/01/17 05:13:47;;;;;;;16.38;7.47;;;-2.80;99.90;;;;;;4994087;28;20051;-63
2023/01/17 05:16:18;;;;;;;18.27;7.82;;;-2.80;99.90;;;;;;4994168;28;20049;-65
2023/01/17 05:18:45;;;;;;;13.20;6.53;;;-2.70;99.90;;;;;;4994132;28;20053;-63
2023/01/17 05:21:13;;;;;;;13.52;5.85;;;-2.70;99.90;;;;;;4993885;28;20043;-65
2023/01/17 05:23:41;;;;;;;13.30;5.43;;;-2.70;99.90;;;;;;4993765;28;20053;-65
2023/01/17 05:26:09;;;;;;;16.85;6.20;;;-2.80;99.90;;;;;;4991565;28;20046;-64
2023/01/17 05:28:37;;;;;;;14.35;7.05;;;-2.70;99.90;;;;;;4993890;28;20061;-65
2023/01/17 05:31:05;;;;;;;11.23;5.00;;;-2.80;99.90;;;;;;4974199;28;20459;-66
2023/01/17 05:33:32;;;;;;;17.10;5.93;;;-2.80;99.90;;;;;;4983037;28;20411;-59
2023/01/17 05:36:00;;;;;;;16.05;5.55;;;-2.80;99.90;;;;;;4977050;28;20058;-65
2023/01/17 05:38:28;;;;;;;16.50;6.18;;;-2.80;99.90;;;;;;4993673;28;20061;-63
2023/01/17 05:40:59;;;;;;;15.57;5.55;;;-2.80;99.90;;;;;;4993416;28;20053;-59
2023/01/17 05:43:27;;;;;;;11.15;4.85;;;-2.80;99.90;;;;;;4992893;28;20042;-65
2023/01/17 05:45:55;;;;;;;12.57;5.50;;;-2.80;99.90;;;;;;5005481;28;20046;-66
2023/01/17 05:48:22;;;;;;;10.95;4.80;;;-2.70;99.90;;;;;;4987125;28;20058;-66
2023/01/17 05:50:51;;;;;;;15.02;5.57;;;-2.70;99.90;;;;;;4988337;28;20371;-66
2023/01/17 05:53:18;;;;;;;14.15;5.93;;;-2.70;99.90;;;;;;4978689;28;20047;-65
2023/01/17 05:55:47;;;;;;;13.63;6.15;;;-2.70;99.90;;;;;;4988585;28;20043;-64
2023/01/17 05:58:17;;;;;;;14.25;6.38;;;-2.70;99.90;;;;;;5004062;28;20042;-66
2023/01/17 06:00:45;;;;;;;9.40;5.95;;;-2.70;99.90;;;;;;4989253;28;20042;-58
2023/01/17 06:03:13;;;;;;;12.48;5.75;;;-2.70;99.90;;;;;;4983607;28;20047;-61
2023/01/17 06:05:41;;;;;;;12.93;5.43;;;-2.60;99.90;;;;;;4987777;28;20083;-61
2023/01/17 06:08:09;;;;;;;15.23;5.95;;;-2.50;99.90;;;;;;4987902;28;20047;-65
2023/01/17 06:10:37;;;;;;;14.93;6.13;;;-2.50;99.90;;;;;;4990132;28;20042;-64
2023/01/17 06:13:21;;;;;;;14.73;5.60;;;-2.50;99.90;;;;;;4987005;28;20042;-64
2023/01/17 06:15:49;;;;;;;12.55;6.15;;;-2.40;99.90;;;;;;4987843;28;20100;-64
2023/01/17 06:18:17;;;;;;;14.65;6.55;;;-2.30;99.90;;;;;;4989151;28;20050;-58
2023/01/17 06:20:53;;;;;;;12.90;5.47;;;-2.30;99.90;;;;;;4979970;28;20055;-62
2023/01/17 06:23:22;;;;;;;16.88;5.22;;;-2.30;99.90;;;;;;4986414;28;20331;-58
2023/01/17 06:25:53;;;;;;;15.05;6.22;;;-2.20;99.90;;;;;;4989284;28;20058;-58
2023/01/17 06:28:21;;;;;;;15.57;5.70;;;-2.20;99.90;;;;;;4990067;28;20054;-57
2023/01/17 06:30:49;;;;;;;19.55;6.15;;;-2.20;99.90;;;;;;5004073;28;20128;-57
2023/01/17 06:33:17;;;;;;;20.13;8.02;;;-2.20;99.90;;;;;;4987035;28;20042;-58
2023/01/17 06:35:49;;;;;;;18.13;5.65;;;-2.10;99.90;;;;;;4987170;28;20058;-59
2023/01/17 06:38:17;;;;;;;20.45;7.88;;;-2.10;99.90;;;;;;5000446;28;20041;-58
2023/01/17 06:40:45;;;;;;;21.42;7.60;;;-2.10;99.90;;;;;;5025842;28;20057;-60
2023/01/17 06:43:13;;;;;;;33.85;7.72;;;-2.00;99.90;;;;;;5003200;28;20523;-60
2023/01/17 06:45:44;;;;;;;22.35;6.93;;;-1.90;99.90;;;;;;4989549;28;20050;-60
2023/01/17 06:48:12;;;;;;;22.10;7.50;;;-1.90;99.90;;;;;;4990202;28;20482;-60
2023/01/17 06:50:39;;;;;;;14.77;5.82;;;-1.70;99.90;;;;;;4990664;28;20410;-63
2023/01/17 06:53:07;;;;;;;24.05;7.22;;;-1.70;99.90;;;;;;4989534;28;20398;-63
2023/01/17 06:55:39;;;;;;;27.45;7.38;;;-1.70;99.90;;;;;;4980871;28;20422;-61
2023/01/17 06:58:08;;;;;;;13.68;5.55;;;-1.60;99.90;;;;;;4990497;28;20047;-58
2023/01/17 07:00:39;;;;;;;17.98;7.40;;;-1.60;99.90;;;;;;5006110;28;20054;-59
2023/01/17 07:03:22;;;;;;;23.13;6.97;;;-1.50;99.90;;;;;;4997616;28;20425;-63
2023/01/17 07:05:51;;;;;;;17.08;6.45;;;-1.40;99.90;;;;;;4986515;28;20046;-64
2023/01/17 07:08:20;;;;;;;18.52;7.28;;;-1.40;99.90;;;;;;4987368;28;20555;-62
2023/01/17 07:10:48;;;;;;;20.20;6.93;;;-1.40;99.90;;;;;;4990424;28;20344;-62
2023/01/17 07:13:16;;;;;;;17.80;7.45;;;-1.40;99.90;;;;;;4990029;28;20053;-65
2023/01/17 07:15:43;;;;;;;21.17;7.68;;;-1.40;99.90;;;;;;4990222;28;20398;-64
2023/01/17 07:18:12;;;;;;;25.40;8.10;;;-1.40;99.90;;;;;;4990003;28;20420;-61
2023/01/17 07:20:42;;;;;;;23.25;7.15;;;-1.40;99.90;;;;;;4986259;28;20058;-60
2023/01/17 07:23:19;;;;;;;22.73;7.75;;;-1.40;99.90;;;;;;4987382;28;20386;-62
2023/01/17 07:25:54;;;;;;;23.25;7.20;;;-1.30;99.90;;;;;;4988427;28;20046;-57
2023/01/17 07:28:26;;;;;;;22.17;7.75;;;-1.30;99.90;;;;;;4986548;28;20053;-57
2023/01/17 07:30:56;;;;;;;27.92;7.90;;;-1.30;99.90;;;;;;5006321;28;20046;-58
2023/01/17 07:33:27;;;;;;;19.63;7.15;;;-1.30;99.90;;;;;;4999828;28;20046;-60
2023/01/17 07:35:55;;;;;;;24.30;6.57;;;-1.30;99.90;;;;;;4989129;28;20057;-60
2023/01/17 07:38:26;;;;;;;27.02;7.95;;;-1.30;99.90;;;;;;4977819;28;20039;-61
2023/01/17 07:40:58;;;;;;;35.65;7.72;;;-1.30;99.90;;;;;;4970597;28;20047;-64
2023/01/17 07:43:26;;;;;;;40.42;8.95;;;-1.20;99.90;;;;;;4977348;28;20054;-59
2023/01/17 07:45:53;;;;;;;40.20;9.27;;;-1.20;99.90;;;;;;4986484;28;20051;-60
2023/01/17 07:48:22;;;;;;;41.38;9.45;;;-1.20;99.90;;;;;;4987745;28;20066;-60
2023/01/17 07:50:54;;;;;;;42.60;10.43;;;-1.20;99.90;;;;;;4990015;28;20042;-59
2023/01/17 07:53:28;;;;;;;44.60;10.52;;;-1.20;99.90;;;;;;4989655;28;20046;-58
2023/01/17 07:56:03;;;;;;;46.42;10.65;;;-1.30;99.90;;;;;;4989928;28;20047;-59
2023/01/17 07:58:32;;;;;;;70.75;9.00;;;-1.20;99.90;;;;;;4987109;28;20042;-57
2023/01/17 08:01:10;;;;;;;65.00;9.00;;;-1.20;99.90;;;;;;4994110;28;20050;-60
2023/01/17 08:03:38;;;;;;;65.28;8.98;;;-1.20;99.90;;;;;;4985636;28;20046;-59
2023/01/17 08:06:16;;;;;;;123.20;9.73;;;-1.20;99.90;;;;;;4985806;28;20071;-60
2023/01/17 08:08:43;;;;;;;59.03;8.77;;;-1.20;99.90;;;;;;5001843;28;20060;-63
2023/01/17 08:11:12;;;;;;;51.53;9.00;;;-1.10;99.90;;;;;;5009403;28;20053;-63
2023/01/17 08:13:40;;;;;;;54.60;9.27;;;-1.20;99.90;;;;;;4991508;28;20046;-65
2023/01/17 08:16:09;;;;;;;57.35;8.40;;;-1.10;99.90;;;;;;4987433;28;20409;-61
2023/01/17 08:18:39;;;;;;;67.93;9.55;;;-1.10;99.90;;;;;;4988651;28;20050;-64
2023/01/17 08:21:17;;;;;;;30.67;7.53;;;-1.10;99.90;;;;;;4988427;28;20043;-63
2023/01/17 08:23:49;;;;;;;23.17;7.40;;;-1.10;99.90;;;;;;4989650;28;20043;-64
2023/01/17 08:26:21;;;;;;;51.25;8.48;;;-1.10;99.90;;;;;;4991160;28;20047;-62
2023/01/17 08:28:59;;;;;;;38.08;10.20;;;-1.10;99.90;;;;;;4994910;28;20505;-62
2023/01/17 08:31:29;;;;;;;32.97;9.50;;;-1.20;99.90;;;;;;5006458;28;20529;-63
2023/01/17 08:33:57;;;;;;;31.10;10.32;;;-1.20;99.90;;;;;;4992175;28;20065;-58
2023/01/17 08:36:26;;;;;;;29.15;8.00;;;-1.20;99.90;;;;;;5008045;28;20050;-58
2023/01/17 08:38:54;;;;;;;28.65;7.43;;;-1.20;99.90;;;;;;4989647;28;20050;-59
2023/01/17 08:41:26;;;;;;;42.35;7.22;;;-1.20;99.90;;;;;;4991732;28;20047;-60
2023/01/17 08:43:58;;;;;;;30.13;7.45;;;-1.20;99.90;;;;;;4992696;28;20047;-59
2023/01/17 08:46:32;;;;;;;28.20;7.55;;;-1.20;99.90;;;;;;4989747;28;20046;-59
2023/01/17 08:49:04;;;;;;;30.17;7.85;;;-1.20;99.90;;;;;;4991818;28;20050;-59
2023/01/17 08:51:33;;;;;;;;;;;-1.30;99.90;;;;;;4991931;28;20053;-61
2023/01/17 08:54:01;;;;;;;33.22;8.45;;;-1.40;99.90;;;;;;4989479;28;19926;-59
2023/01/17 08:56:29;;;;;;;32.55;8.93;;;-1.40;99.90;;;;;;5007101;28;20053;-59
2023/01/17 08:58:58;;;;;;;51.42;10.57;;;-1.50;99.90;;;;;;4995449;28;20034;-60
2023/01/17 09:01:26;;;;;;;31.10;10.03;;;-1.50;99.90;;;;;;4991640;28;20050;-63
2023/01/17 09:03:55;;;;;;;40.65;9.23;;;-1.50;99.90;;;;;;4990685;28;20066;-59
2023/01/17 09:06:26;;;;;;;24.70;8.75;;;-1.50;99.90;;;;;;4991724;28;20524;-59
2023/01/17 09:08:54;;;;;;;40.97;11.18;;;-1.50;99.90;;;;;;4991813;28;20046;-58
2023/01/17 09:11:24;;;;;;;34.70;10.93;;;-1.50;99.90;;;;;;4986202;28;20487;-57
2023/01/17 09:13:53;;;;;;;36.05;10.13;;;-1.60;99.90;;;;;;4991039;28;20497;-58
2023/01/17 09:16:21;;;;;;;38.40;12.77;;;-1.70;99.90;;;;;;4992406;28;20061;-60
2023/01/17 09:18:56;;;;;;;34.22;10.45;;;-1.70;99.90;;;;;;4998484;28;20042;-60
2023/01/17 09:21:25;;;;;;;32.15;11.80;;;-1.70;99.90;;;;;;4992028;28;20046;-62
2023/01/17 09:23:56;;;;;;;32.13;10.52;;;-1.70;99.90;;;;;;4989547;28;20034;-62
2023/01/17 09:26:29;;;;;;;24.20;9.02;;;-1.70;99.90;;;;;;4991299;28;20042;-60
2023/01/17 09:28:57;;;;;;;27.00;8.70;;;-1.70;99.90;;;;;;5001424;28;20038;-60
2023/01/17 09:31:26;;;;;;;19.85;8.50;;;-1.70;99.90;;;;;;4990468;28;20138;-58
2023/01/17 09:33:57;;;;;;;26.70;8.05;;;-1.60;99.90;;;;;;4978003;28;20051;-59
2023/01/17 09:36:27;;;;;;;21.02;8.90;;;-1.60;99.90;;;;;;4972787;28;20055;-64
2023/01/17 09:38:56;;;;;;;24.38;7.97;;;-1.60;99.90;;;;;;4984619;28;20046;-61
2023/01/17 09:41:32;;;;;;;21.20;8.13;;;-1.50;99.90;;;;;;4989849;28;20069;-62
2023/01/17 09:44:24;;;;;;;30.83;9.55;;;-1.40;99.90;;;;;;5000494;28;20050;-61
2023/01/17 09:47:12;;;;;;;30.10;9.70;;;-1.30;99.90;;;;;;4991389;28;20042;-60
2023/01/17 09:49:43;;;;;;;27.50;9.45;;;-1.30;99.90;;;;;;4991221;28;20049;-59
2023/01/17 09:52:18;;;;;;;95.72;15.07;;;-1.30;99.90;;;;;;4991490;28;20046;-57
2023/01/17 09:54:48;;;;;;;49.88;15.95;;;-1.20;99.90;;;;;;4987044;28;20058;-59
2023/01/17 09:57:27;;;;;;;;;;;-1.20;99.90;;;;;;4987302;28;20039;-58
2023/01/17 10:00:33;;;;;;;44.53;14.20;;;-1.20;99.90;;;;;;5000851;28;19944;-58
2023/01/17 10:03:34;;;;;;;50.20;13.60;;;-1.10;99.90;;;;;;5000376;28;20542;-57
2023/01/17 10:06:23;;;;;;;39.85;14.13;;;-1.10;99.90;;;;;;4993834;28;20061;-62
2023/01/17 10:08:57;;;;;;;;;;;-1.00;99.90;;;;;;4991872;28;20054;-59
2023/01/17 10:11:33;;;;;;;40.30;12.82;;;-1.00;99.90;;;;;;4989596;28;20300;-59
2023/01/17 10:14:19;;;;;;;53.65;20.15;;;-1.00;99.90;;;;;;4990253;28;20042;-64
2023/01/17 10:17:21;;;;;;;27.95;10.43;;;-0.90;99.90;;;;;;4991313;28;20050;-59
2023/01/17 10:20:20;;;;;;;22.48;9.75;;;-0.80;99.90;;;;;;4976075;28;20394;-66
2023/01/17 10:23:20;;;;;;;35.22;10.38;;;-0.70;99.90;;;;;;4987856;28;20054;-59
2023/01/17 10:25:51;;;;;;;19.80;7.22;;;-0.60;99.90;;;;;;4989605;28;20045;-59
2023/01/17 10:28:30;;;;;;;20.08;7.45;;;-0.60;99.90;;;;;;4987272;28;20505;-58
2023/01/17 10:31:04;;;;;;;22.30;7.83;;;-0.50;99.90;;;;;;4989193;28;20043;-59
2023/01/17 10:33:55;;;;;;;18.98;8.05;;;-0.40;99.90;;;;;;4989583;28;20394;-60
2023/01/17 10:36:31;;;;;;;15.20;6.93;;;-0.30;99.90;;;;;;4990268;28;20050;-59
2023/01/17 10:39:13;;;;;;;16.92;6.93;;;-0.20;99.90;;;;;;4994293;28;20438;-59
2023/01/17 10:41:44;;;;;;;17.08;6.95;;;0.00;99.90;;;;;;4983733;28;20046;-64
2023/01/17 10:44:31;;;;;;;17.10;7.35;;;0.10;99.90;;;;;;4985413;28;20053;-68
2023/01/17 10:47:08;;;;;;;20.58;8.50;;;0.10;99.90;;;;;;4990661;28;20505;-71
2023/01/17 10:49:44;;;;;;;19.60;6.97;;;0.30;99.90;;;;;;4989069;28;20045;-69
2023/01/17 10:52:23;;;;;;;19.70;6.78;;;0.40;99.90;;;;;;4992258;28;20054;-68
2023/01/17 10:55:03;;;;;;;12.38;5.95;;;0.50;99.90;;;;;;5010095;28;20041;-69
2023/01/17 10:57:36;;;;;;;16.45;6.15;;;0.50;99.90;;;;;;4991765;28;20050;-67
2023/01/17 11:00:42;;;;;;;11.15;5.25;;;0.50;99.90;;;;;;4985021;28;20049;-70
2023/01/17 11:03:12;;;;;;;8.02;3.95;;;0.60;99.90;;;;;;4986648;28;20054;-62
2023/01/17 11:05:41;;;;;;;7.88;3.92;;;0.50;99.90;;;;;;4989762;28;20505;-67
2023/01/17 11:08:12;;;;;;;6.53;3.03;;;0.60;99.90;;;;;;4985756;28;20058;-65
2023/01/17 11:10:46;;;;;;;4.18;2.65;;;0.70;99.90;;;;;;4989079;28;20418;-70
2023/01/17 11:13:35;;;;;;;9.30;3.35;;;0.70;99.90;;;;;;5000292;28;20045;-69
2023/01/17 11:16:05;;;;;;;;;;;0.90;99.90;;;;;;5010192;28;20053;-61
2023/01/17 11:18:37;;;;;;;;;;;0.90;99.90;;;;;;4999075;28;19930;-59
2023/01/17 11:21:20;;;;;;;7.90;3.22;;;1.10;99.90;;;;;;4988491;28;20373;-60
2023/01/17 11:23:55;;;;;;;11.77;4.07;;;1.30;99.90;;;;;;4987807;28;20043;-59
2023/01/17 11:26:30;;;;;;;10.07;3.20;;;1.40;99.90;;;;;;4989338;28;20046;-61
2023/01/17 11:29:18;;;;;;;7.90;3.60;;;1.50;99.90;;;;;;4998111;28;20050;-61
2023/01/17 11:31:45;;;;;;;11.95;4.18;;;1.70;99.90;;;;;;5004901;28;20046;-60
2023/01/17 11:34:16;;;;;;;7.18;3.65;;;1.80;99.90;;;;;;4989256;28;20046;-60
2023/01/17 11:36:44;;;;;;;6.72;2.58;;;1.90;99.90;;;;;;4988158;28;20062;-59
2023/01/17 11:39:17;;;;;;;5.50;3.08;;;2.00;99.90;;;;;;4985215;28;20130;-58
2023/01/17 11:41:46;;;;;;;7.15;3.08;;;2.10;99.90;;;;;;4990034;28;20502;-60
2023/01/17 11:44:30;;;;;;;8.38;3.50;;;2.50;99.90;;;;;;4987838;28;20050;-61
2023/01/17 11:47:15;;;;;;;8.38;3.33;;;2.50;99.90;;;;;;4988123;28;20042;-59
2023/01/17 11:49:46;;;;;;;6.40;2.88;;;2.90;99.90;;;;;;4972754;28;20046;-66
2023/01/17 11:52:23;;;;;;;7.03;3.38;;;3.00;99.90;;;;;;4979973;28;20046;-65
2023/01/17 11:54:53;;;;;;;9.35;3.88;;;3.00;99.90;;;;;;4994509;28;20046;-62
2023/01/17 11:57:29;;;;;;;9.63;4.35;;;3.20;99.90;;;;;;4988163;28;20053;-60
2023/01/17 12:00:19;;;;;;;9.80;6.32;;;3.40;99.90;;;;;;4998086;28;20042;-61
2023/01/17 12:03:06;;;;;;;8.68;4.40;;;3.80;99.90;;;;;;5006229;28;20047;-63
2023/01/17 12:05:42;;;;;;;11.40;4.72;;;3.70;99.90;;;;;;4991358;28;20046;-62
2023/01/17 12:08:35;;;;;;;7.82;4.35;;;4.00;99.90;;;;;;4999705;28;20049;-62
2023/01/17 12:11:30;;;;;;;5.03;2.25;;;4.30;99.90;;;;;;5013152;28;20064;-61
2023/01/17 12:14:11;;;;;;;9.82;3.05;;;4.40;99.90;;;;;;4996582;28;20053;-62
2023/01/17 12:16:54;;;;;;;5.20;2.55;;;4.50;99.90;;;;;;4991954;28;20081;-66
2023/01/17 12:19:53;;;;;;;11.73;3.63;;;4.70;99.90;;;;;;4991662;28;21593;-67
2023/01/17 12:22:51;;;;;;;12.77;4.93;;;4.90;99.90;;;;;;4973769;28;20042;-60
2023/01/17 12:26:05;;;;;;;14.85;5.88;;;5.10;99.90;;;;;;4987693;28;20046;-60
2023/01/17 12:28:57;;;;;;;15.48;6.45;;;5.30;99.90;;;;;;4993222;28;20050;-60
2023/01/17 12:31:32;;;;;;;20.70;8.23;;;5.60;99.90;;;;;;4992405;28;20046;-60
2023/01/17 12:34:34;;;;;;;16.20;7.72;;;5.80;99.90;;;;;;5005597;28;20053;-66
2023/01/17 12:37:04;;;;;;;19.77;8.20;;;6.10;99.90;;;;;;4988217;28;20526;-62
2023/01/17 12:39:50;;;;;;;18.00;8.57;;;6.40;99.90;;;;;;4995779;28;20069;-61
2023/01/17 12:42:23;;;;;;;20.10;7.95;;;6.60;99.90;;;;;;4993745;28;20042;-66
2023/01/17 12:44:58;;;;;;;23.08;8.63;;;6.70;99.90;;;;;;5012687;28;20053;-65
2023/01/17 12:47:26;;;;;;;20.05;6.95;;;6.80;99.90;;;;;;5011153;28;20042;-66
2023/01/17 12:50:20;;;;;;;13.93;6.20;;;7.00;99.90;;;;;;4993099;28;20054;-67
2023/01/17 12:53:12;;;;;;;13.98;6.32;;;6.70;99.90;;;;;;4979874;28;20486;-58
2023/01/17 12:56:06;;;;;;;10.30;5.22;;;6.20;99.90;;;;;;4976195;28;20054;-59
2023/01/17 12:58:45;;;;;;;10.02;4.53;;;6.00;99.90;;;;;;4992639;28;20516;-62
2023/01/17 13:01:21;;;;;;;13.13;5.15;;;5.80;99.90;;;;;;4992935;28;20042;-65
2023/01/17 13:03:57;;;;;;;12.15;4.00;;;5.50;99.90;;;;;;4990582;28;20046;-61
2023/01/17 13:06:44;;;;;;;5.95;3.30;;;5.50;99.90;;;;;;4991299;28;20561;-67
2023/01/17 13:09:17;;;;;;;5.03;2.95;;;5.70;99.90;;;;;;4990495;28;20046;-64
2023/01/17 13:12:13;;;;;;;9.00;3.88;;;6.00;99.90;;;;;;4991382;28;20042;-65
2023/01/17 13:14:41;;;;;;;4.63;3.58;;;6.40;99.90;;;;;;4972210;28;20051;-64
2023/01/17 13:17:44;;;;;;;6.28;4.03;;;6.70;99.90;;;;;;4980547;28;20502;-64
2023/01/17 13:20:57;;;;;;;11.82;4.45;;;7.00;99.90;;;;;;5013088;28;20057;-65
2023/01/17 13:24:08;;;;;;;5.65;4.20;;;7.30;99.90;;;;;;4983737;28;20053;-67
2023/01/17 13:26:40;;;;;;;6.45;5.25;;;7.60;99.90;;;;;;4997738;28;20427;-66
2023/01/17 13:29:23;;;;;;;8.05;5.55;;;7.50;99.90;;;;;;5007148;28;20121;-66
2023/01/17 13:31:59;;;;;;;8.50;5.05;;;7.50;99.90;;;;;;5011876;28;20643;-67
2023/01/17 13:34:51;;;;;;;8.57;4.78;;;7.80;99.90;;;;;;4987888;28;20065;-60
2023/01/17 13:37:49;;;;;;;9.55;5.13;;;8.10;99.90;;;;;;4986366;28;20046;-64
2023/01/17 13:40:27;;;;;;;8.80;5.90;;;8.00;99.90;;;;;;4992107;28;20049;-62
2023/01/17 13:43:01;;;;;;;10.32;6.22;;;8.00;99.90;;;;;;4988863;28;20047;-61
2023/01/17 13:45:32;;;;;;;14.13;6.55;;;7.70;99.90;;;;;;4988910;28;20506;-61
2023/01/17 13:48:15;;;;;;;9.18;5.97;;;7.70;99.90;;;;;;4991606;28;20055;-61
2023/01/17 13:50:43;;;;;;;9.07;5.75;;;7.80;99.90;;;;;;4990785;28;20049;-58
2023/01/17 13:53:32;;;;;;;8.18;5.13;;;8.10;99.90;;;;;;4991192;28;20057;-60
2023/01/17 13:56:35;;;;;;;10.65;6.10;;;8.00;99.90;;;;;;4981175;28;20046;-64
2023/01/17 13:59:04;;;;;;;11.60;5.28;;;7.50;99.90;;;;;;4985090;28;20508;-59
2023/01/17 14:01:37;;;;;;;11.10;5.80;;;6.80;99.90;;;;;;4988966;28;20055;-59
2023/01/17 14:04:07;;;;;;;13.52;6.80;;;6.30;99.90;;;;;;4990541;28;20510;-58
2023/01/17 14:06:35;;;;;;;;;;;6.10;99.90;;;;;;4990393;28;20042;-60
2023/01/17 14:09:11;;;;;;;11.93;4.53;;;6.00;99.90;;;;;;4985642;28;19933;-63
2023/01/17 14:11:56;;;;;;;16.50;5.55;;;6.20;99.90;;;;;;4986252;28;20406;-62
2023/01/17 14:14:49;;;;;;;23.52;7.32;;;6.30;99.90;;;;;;4984780;28;20097;-61
2023/01/17 14:17:21;;;;;;;9.88;5.35;;;6.10;99.90;;;;;;4991149;28;20073;-68
2023/01/17 14:19:51;;;;;;;15.55;6.97;;;5.50;99.90;;;;;;4974760;28;20051;-67
2023/01/17 14:22:18;;;;;;;21.38;8.20;;;5.20;99.90;;;;;;4979372;28;20052;-60
2023/01/17 14:25:16;;;;;;;17.50;7.57;;;4.80;99.90;;;;;;4987409;28;20051;-66
2023/01/17 14:27:54;;;;;;;10.57;5.28;;;4.40;99.90;;;;;;4990980;28;20891;-69
2023/01/17 14:30:30;;;;;;;18.00;6.57;;;4.10;99.90;;;;;;4990045;28;20069;-67
2023/01/17 14:33:04;;;;;;;6.32;3.10;;;4.40;99.90;;;;;;4983532;28;20038;-60
2023/01/17 14:35:50;;;;;;;3.35;1.95;;;5.20;99.90;;;;;;4990717;28;20434;-66
2023/01/17 14:38:22;;;;;;;3.15;1.50;;;5.30;99.90;;;;;;4990235;28;20398;-58
2023/01/17 14:40:58;;;;;;;5.80;1.63;;;5.00;99.90;;;;;;4988051;28;20263;-65